createdAt,value
2018-07-20T00:00:06.629Z,76.32
2018-07-20T00:02:36.094Z,75.94
2018-07-20T00:05:06.739Z,75.78
2018-07-20T00:07:36.206Z,75.47
2018-07-20T00:10:05.703Z,75.57
2018-07-20T00:12:35.091Z,75.85
2018-07-20T00:15:04.847Z,76.00
2018-07-20T00:17:34.401Z,76.11
2018-07-20T00:20:03.935Z,75.90
2018-07-20T00:22:33.460Z,76.25
2018-07-20T00:25:02.972Z,76.52
2018-07-20T00:27:32.394Z,76.81
2018-07-20T00:30:01.864Z,77.06
2018-07-20T00:32:31.345Z,77.03
2018-07-20T00:35:00.783Z,76.54
2018-07-20T00:37:30.225Z,76.68
2018-07-20T00:39:59.716Z,77.14
2018-07-20T00:42:29.141Z,76.97
2018-07-20T00:44:58.639Z,77.02
2018-07-20T00:47:28.133Z,76.65
2018-07-20T00:49:57.598Z,76.84
2018-07-20T00:52:27.248Z,77.45
2018-07-20T00:54:56.715Z,77.21
2018-07-20T00:57:26.136Z,77.53
2018-07-20T00:59:55.641Z,77.50
2018-07-20T01:02:25.093Z,77.75
2018-07-20T01:04:54.560Z,78.38
2018-07-20T01:07:24.039Z,78.06
2018-07-20T01:09:53.485Z,78.54
2018-07-20T01:12:22.884Z,78.60
2018-07-20T01:14:52.420Z,78.45
2018-07-20T01:17:21.936Z,77.62
2018-07-20T01:19:51.530Z,78.14
2018-07-20T01:22:21.015Z,77.86
2018-07-20T01:24:50.438Z,78.64
2018-07-20T01:27:19.899Z,78.30
2018-07-20T01:29:49.341Z,78.82
2018-07-20T01:32:18.800Z,78.81
2018-07-20T01:34:48.257Z,78.93
2018-07-20T01:37:17.705Z,78.38
2018-07-20T01:39:47.150Z,78.62
2018-07-20T01:42:16.591Z,78.57
2018-07-20T01:44:46.072Z,79.03
2018-07-20T01:47:15.540Z,78.66
2018-07-20T01:49:45.076Z,78.87
2018-07-20T01:52:14.553Z,79.00
2018-07-20T01:54:44.019Z,78.94
2018-07-20T01:57:13.540Z,78.79
2018-07-20T01:59:43.026Z,78.73
2018-07-20T02:02:12.451Z,78.82
2018-07-20T02:04:41.963Z,79.67
2018-07-20T02:07:11.410Z,79.08
2018-07-20T02:09:40.868Z,79.74
2018-07-20T02:12:10.333Z,79.80
2018-07-20T02:14:39.799Z,80.35
2018-07-20T02:17:09.355Z,79.94
2018-07-20T02:19:38.725Z,80.66
2018-07-20T02:22:08.177Z,80.64
2018-07-20T02:24:37.690Z,80.58
2018-07-20T02:27:07.160Z,79.94
2018-07-20T02:29:36.650Z,80.58
2018-07-20T02:32:06.156Z,80.41
2018-07-20T02:34:35.594Z,80.55
2018-07-20T02:37:05.112Z,80.69
2018-07-20T02:39:34.525Z,80.22
2018-07-20T02:42:03.997Z,81.18
2018-07-20T02:44:33.448Z,81.24
2018-07-20T02:47:02.916Z,81.94
2018-07-20T02:49:32.353Z,81.60
2018-07-20T02:52:01.798Z,81.48
2018-07-20T02:54:31.232Z,81.89
2018-07-20T02:57:00.597Z,81.57
2018-07-20T02:59:29.980Z,80.85
2018-07-20T03:01:59.427Z,81.38
2018-07-20T03:04:28.844Z,80.84
2018-07-20T03:06:58.270Z,80.11
2018-07-20T03:09:27.695Z,79.76
2018-07-20T03:11:57.194Z,79.60
2018-07-20T03:14:26.739Z,79.67
2018-07-20T03:16:56.207Z,79.98
2018-07-20T03:19:25.672Z,80.08
2018-07-20T03:21:55.050Z,80.11
2018-07-20T03:24:24.474Z,79.49
2018-07-20T03:26:53.916Z,80.00
2018-07-20T03:29:23.425Z,80.22
2018-07-20T03:31:52.866Z,79.67
2018-07-20T03:34:22.259Z,79.21
2018-07-20T03:36:51.722Z,79.95
2018-07-20T03:39:21.114Z,79.56
2018-07-20T03:41:50.568Z,79.98
2018-07-20T03:44:20.048Z,79.47
2018-07-20T03:46:49.483Z,79.61
2018-07-20T03:49:18.892Z,79.12
2018-07-20T03:51:48.341Z,79.98
2018-07-20T03:54:17.796Z,79.64
2018-07-20T03:56:47.241Z,79.89
2018-07-20T03:59:16.776Z,79.93
2018-07-20T04:01:46.174Z,80.72
2018-07-20T04:04:15.602Z,80.22
2018-07-20T04:06:45.043Z,80.97
2018-07-20T04:09:14.494Z,80.40
2018-07-20T04:11:43.925Z,80.48
2018-07-20T04:14:13.374Z,80.86
2018-07-20T04:16:42.836Z,80.88
2018-07-20T04:19:12.289Z,81.04
2018-07-20T04:21:41.748Z,80.89
2018-07-20T04:24:11.203Z,80.88
2018-07-20T04:26:40.682Z,80.27
2018-07-20T04:29:10.152Z,80.99
2018-07-20T04:31:39.561Z,81.36
2018-07-20T04:34:08.999Z,80.97
2018-07-20T04:36:38.414Z,81.09
2018-07-20T04:39:12.155Z,81.91
2018-07-20T04:41:42.177Z,82.20
2018-07-20T04:44:11.672Z,82.51
2018-07-20T04:46:41.170Z,82.92
2018-07-20T04:49:10.645Z,82.44
2018-07-20T04:51:40.097Z,82.56
2018-07-20T04:54:09.569Z,83.76
2018-07-20T04:56:39.008Z,83.63
2018-07-20T04:59:08.519Z,84.48
2018-07-20T05:01:37.960Z,84.65
2018-07-20T05:04:07.432Z,84.82
2018-07-20T05:06:36.839Z,84.81
2018-07-20T05:09:09.773Z,84.68
2018-07-20T05:11:39.549Z,83.87
2018-07-20T05:14:09.320Z,84.60
2018-07-20T05:16:38.806Z,83.75
2018-07-20T05:19:08.225Z,84.32
2018-07-20T05:21:37.870Z,84.74
2018-07-20T05:24:07.493Z,84.47
2018-07-20T05:26:36.874Z,83.79
2018-07-20T05:29:06.587Z,83.82
2018-07-20T05:31:36.076Z,83.52
2018-07-20T05:34:05.556Z,83.57
2018-07-20T05:36:34.700Z,82.78
2018-07-20T05:39:05.980Z,83.29
2018-07-20T05:41:35.434Z,83.44
2018-07-20T05:44:04.935Z,83.62
2018-07-20T05:46:34.384Z,82.38
2018-07-20T05:49:03.872Z,82.63
2018-07-20T05:51:33.380Z,83.72
2018-07-20T05:54:03.921Z,83.69
2018-07-20T05:56:33.441Z,82.50
2018-07-20T05:59:02.883Z,82.15
2018-07-20T06:01:32.302Z,81.82
2018-07-20T06:04:01.800Z,81.82
2018-07-20T06:06:30.951Z,82.19
2018-07-20T06:09:00.364Z,82.29
2018-07-20T06:11:29.805Z,81.57
2018-07-20T06:13:59.276Z,81.72
2018-07-20T06:16:28.685Z,81.47
2018-07-20T06:18:58.138Z,81.33
2018-07-20T06:21:27.541Z,81.07
2018-07-20T06:23:57.039Z,81.10
2018-07-20T06:26:26.408Z,81.26
2018-07-20T06:28:55.856Z,81.40
2018-07-20T06:31:25.345Z,81.01
2018-07-20T06:33:55.745Z,80.08
2018-07-20T06:36:25.237Z,80.23
2018-07-20T06:38:54.656Z,79.38
2018-07-20T06:41:24.119Z,79.35
2018-07-20T06:43:53.501Z,78.90
2018-07-20T06:46:22.904Z,78.74
2018-07-20T06:48:52.353Z,78.73
2018-07-20T06:51:22.526Z,79.49
2018-07-20T06:53:51.965Z,79.59
2018-07-20T06:56:21.536Z,79.51
2018-07-20T06:58:50.949Z,79.41
2018-07-20T07:01:20.379Z,78.62
2018-07-20T07:03:49.791Z,79.12
2018-07-20T07:06:19.227Z,78.66
2018-07-20T07:08:48.605Z,78.11
2018-07-20T07:11:18.089Z,78.60
2018-07-20T07:13:47.549Z,78.20
2018-07-20T07:16:16.962Z,77.27
2018-07-20T07:18:46.482Z,77.25
2018-07-20T07:21:15.973Z,76.17
2018-07-20T07:23:45.121Z,77.01
2018-07-20T07:26:14.545Z,76.76
2018-07-20T07:28:43.945Z,75.87
2018-07-20T07:31:13.391Z,75.29
2018-07-20T07:33:42.815Z,74.08
2018-07-20T07:36:12.233Z,72.77
2018-07-20T07:38:41.664Z,71.00
2018-07-20T07:41:11.103Z,71.39
2018-07-20T07:43:40.579Z,71.23
2018-07-20T07:46:09.983Z,70.72
2018-07-20T07:48:39.393Z,70.25
2018-07-20T07:51:08.862Z,69.22
2018-07-20T07:53:38.375Z,68.57
2018-07-20T07:56:07.879Z,69.29
2018-07-20T07:58:37.330Z,68.56
2018-07-20T08:01:06.530Z,67.65
2018-07-20T08:03:36.074Z,67.62
2018-07-20T08:06:05.692Z,66.01
2018-07-20T08:08:35.117Z,66.90
2018-07-20T08:11:04.618Z,68.93
2018-07-20T08:13:34.087Z,70.42
2018-07-20T08:16:03.576Z,67.72
2018-07-20T08:18:32.976Z,65.81
2018-07-20T08:21:02.132Z,65.56
2018-07-20T08:23:31.551Z,62.68
2018-07-20T08:26:01.029Z,64.15
2018-07-20T08:28:30.561Z,65.34
2018-07-20T08:31:00.043Z,65.19
2018-07-20T08:33:29.433Z,65.10
2018-07-20T08:35:58.880Z,62.71
2018-07-20T08:38:28.376Z,64.10
2018-07-20T08:40:57.799Z,64.04
2018-07-20T08:43:27.273Z,64.08
2018-07-20T08:45:56.760Z,63.56
2018-07-20T08:48:26.340Z,63.37
2018-07-20T08:50:55.844Z,62.59
2018-07-20T08:53:25.291Z,62.32
2018-07-20T08:55:54.714Z,63.23
2018-07-20T08:58:24.163Z,62.67
2018-07-20T09:00:53.591Z,62.74
2018-07-20T09:03:23.112Z,61.33
2018-07-20T09:05:52.599Z,61.69
2018-07-20T09:08:22.064Z,60.89
2018-07-20T09:10:51.529Z,63.40
2018-07-20T09:13:20.956Z,62.36
2018-07-20T09:15:50.365Z,61.94
2018-07-20T09:18:19.831Z,61.75
2018-07-20T09:20:49.295Z,60.67
2018-07-20T09:23:18.679Z,58.56
2018-07-20T09:25:48.126Z,59.07
2018-07-20T09:28:18.073Z,58.81
2018-07-20T09:30:47.491Z,58.25
2018-07-20T09:33:16.950Z,57.13
2018-07-20T09:35:52.375Z,55.85
2018-07-20T09:38:21.834Z,54.80
2018-07-20T09:40:51.834Z,56.62
2018-07-20T09:43:21.994Z,58.23
2018-07-20T09:45:51.727Z,56.74
2018-07-20T09:48:21.167Z,56.45
2018-07-20T09:50:50.626Z,53.38
2018-07-20T09:53:20.072Z,52.18
2018-07-20T09:55:49.510Z,54.52
2018-07-20T09:58:18.998Z,55.17
2018-07-20T10:00:51.228Z,55.13
2018-07-20T10:03:21.876Z,51.13
2018-07-20T10:05:51.283Z,52.13
2018-07-20T10:08:21.085Z,53.63
2018-07-20T10:10:50.625Z,53.35
2018-07-20T10:13:19.777Z,50.86
2018-07-20T10:15:49.285Z,52.01
2018-07-20T10:18:18.714Z,50.17
2018-07-20T10:20:48.159Z,50.40
2018-07-20T10:23:17.550Z,50.95
2018-07-20T10:25:47.039Z,48.87
2018-07-20T10:28:16.486Z,50.25
2018-07-20T10:30:45.980Z,49.47
2018-07-20T10:33:15.412Z,48.77
2018-07-20T10:35:44.855Z,47.65
2018-07-20T10:38:14.017Z,47.13
2018-07-20T10:40:43.475Z,46.55
2018-07-20T10:43:12.884Z,46.11
2018-07-20T10:45:42.363Z,44.39
2018-07-20T10:48:11.763Z,44.22
2018-07-20T10:50:41.271Z,44.59
2018-07-20T10:53:10.732Z,43.79
2018-07-20T10:55:40.173Z,42.32
2018-07-20T10:58:09.616Z,42.09
2018-07-20T11:00:39.131Z,43.36
2018-07-20T11:03:08.586Z,43.58
2018-07-20T11:05:38.019Z,44.25
2018-07-20T11:08:07.156Z,42.34
2018-07-20T11:10:36.705Z,41.68
2018-07-20T11:13:06.272Z,41.72
2018-07-20T11:15:35.704Z,41.29
2018-07-20T11:18:05.268Z,41.17
2018-07-20T11:20:34.694Z,42.01
2018-07-20T11:23:04.179Z,41.61
2018-07-20T11:25:33.611Z,42.70
2018-07-20T11:28:03.120Z,43.06
2018-07-20T11:30:32.651Z,42.85
2018-07-20T11:33:02.140Z,46.02
2018-07-20T11:35:31.612Z,44.59
2018-07-20T11:38:01.050Z,45.18
2018-07-20T11:40:30.494Z,41.58
2018-07-20T11:42:59.907Z,40.00
2018-07-20T11:45:29.343Z,41.29
2018-07-20T11:47:59.002Z,42.82
2018-07-20T11:50:28.550Z,42.29
2018-07-20T11:52:57.949Z,40.82
2018-07-20T11:55:27.353Z,41.00
2018-07-20T11:57:56.798Z,38.85
2018-07-20T12:00:26.221Z,38.92
2018-07-20T12:02:55.740Z,40.69
2018-07-20T12:05:24.969Z,40.27
2018-07-20T12:07:54.512Z,41.08
2018-07-20T12:10:24.045Z,41.50
2018-07-20T12:12:53.507Z,38.97
2018-07-20T12:15:22.948Z,38.93
2018-07-20T12:17:52.442Z,39.86
2018-07-20T12:20:21.965Z,38.55
2018-07-20T12:22:51.407Z,38.31
2018-07-20T12:25:20.807Z,40.60
2018-07-20T12:27:50.250Z,38.59
2018-07-20T12:30:19.660Z,38.53
2018-07-20T12:32:49.072Z,38.16
2018-07-20T12:35:18.514Z,38.51
2018-07-20T12:37:47.941Z,38.48
2018-07-20T12:40:17.379Z,40.66
2018-07-20T12:42:46.801Z,37.32
2018-07-20T12:45:16.276Z,37.82
2018-07-20T12:47:45.765Z,36.70
2018-07-20T12:50:15.249Z,37.97
2018-07-20T12:52:44.697Z,37.67
2018-07-20T12:55:14.167Z,39.21
2018-07-20T12:57:43.613Z,39.81
2018-07-20T13:00:13.221Z,40.30
2018-07-20T13:02:42.746Z,36.89
2018-07-20T13:05:12.228Z,37.21
2018-07-20T13:07:41.763Z,37.84
2018-07-20T13:10:11.218Z,42.92
2018-07-20T13:12:40.847Z,38.07
2018-07-20T13:15:10.391Z,38.23
2018-07-20T13:17:39.872Z,42.97
2018-07-20T13:20:09.433Z,45.26
2018-07-20T13:22:38.930Z,44.62
2018-07-20T13:25:08.449Z,42.05
2018-07-20T13:27:37.864Z,40.07
2018-07-20T13:30:08.849Z,39.32
2018-07-20T13:32:38.391Z,39.96
2018-07-20T13:35:08.272Z,39.63
2018-07-20T13:37:37.868Z,40.51
2018-07-20T13:40:08.068Z,42.50
2018-07-20T13:42:37.702Z,39.09
2018-07-20T13:45:08.301Z,38.60
2018-07-20T13:47:37.957Z,37.47
2018-07-20T13:50:09.415Z,37.14
2018-07-20T13:52:39.051Z,40.78
2018-07-20T13:55:08.472Z,37.18
2018-07-20T13:57:37.935Z,39.40
2018-07-20T14:00:08.346Z,37.82
2018-07-20T14:02:37.797Z,39.46
2018-07-20T14:05:07.329Z,40.10
2018-07-20T14:07:36.828Z,41.60
2018-07-20T14:10:07.392Z,39.79
2018-07-20T14:12:36.796Z,40.27
2018-07-20T14:15:07.074Z,42.62
2018-07-20T14:17:36.698Z,40.37
2018-07-20T14:20:06.500Z,42.51
2018-07-20T14:22:35.937Z,42.70
2018-07-20T14:25:05.561Z,43.70
2018-07-20T14:27:35.044Z,44.17
2018-07-20T14:30:05.310Z,45.94
2018-07-20T14:32:34.789Z,45.01
2018-07-20T14:35:04.461Z,43.65
2018-07-20T14:37:34.005Z,45.06
2018-07-20T14:40:03.485Z,45.91
2018-07-20T14:42:32.902Z,44.30
2018-07-20T14:45:02.360Z,44.69
2018-07-20T14:47:31.832Z,47.08
2018-07-20T14:50:01.188Z,44.32
2018-07-20T14:52:30.637Z,45.63
2018-07-20T14:55:00.197Z,45.96
2018-07-20T14:57:29.699Z,46.47
2018-07-20T14:59:59.240Z,46.33
2018-07-20T15:02:28.799Z,48.00
2018-07-20T15:04:58.282Z,45.36
2018-07-20T15:07:27.686Z,44.99
2018-07-20T15:09:57.140Z,47.53
2018-07-20T15:12:26.574Z,47.35
2018-07-20T15:14:56.160Z,44.90
2018-07-20T15:17:25.628Z,43.79
2018-07-20T15:19:55.100Z,43.38
2018-07-20T15:22:24.532Z,43.18
2018-07-20T15:24:53.985Z,45.43
2018-07-20T15:27:23.623Z,42.25
2018-07-20T15:29:53.059Z,41.19
2018-07-20T15:32:22.484Z,42.39
2018-07-20T15:34:51.713Z,44.48
2018-07-20T15:37:21.113Z,44.30
2018-07-20T15:39:50.580Z,45.99
2018-07-20T15:42:20.125Z,45.35
2018-07-20T15:44:50.096Z,47.11
2018-07-20T15:47:19.578Z,46.83
2018-07-20T15:49:48.971Z,50.16
2018-07-20T15:54:48.029Z,48.47
2018-07-20T15:57:17.634Z,48.05
2018-07-20T15:59:47.217Z,47.88
2018-07-20T16:02:16.597Z,47.19
2018-07-20T16:04:46.144Z,47.91
2018-07-20T16:07:15.655Z,48.95
2018-07-20T16:09:45.145Z,48.83
2018-07-20T16:12:14.614Z,49.06
2018-07-20T16:14:44.066Z,48.85
2018-07-20T16:17:13.606Z,48.66
2018-07-20T16:19:43.110Z,49.93
2018-07-20T16:22:12.511Z,51.07
2018-07-20T16:24:41.973Z,51.17
2018-07-20T16:27:11.388Z,49.90
2018-07-20T16:29:40.809Z,48.80
2018-07-20T16:32:10.261Z,47.66
2018-07-20T16:34:40.692Z,46.54
2018-07-20T16:37:10.119Z,48.23
2018-07-20T16:39:39.518Z,49.07
2018-07-20T16:42:09.433Z,46.83
2018-07-20T16:44:38.847Z,46.28
2018-07-20T16:47:08.337Z,44.37
2018-07-20T16:49:37.933Z,45.38
2018-07-20T16:52:07.330Z,45.33
2018-07-20T16:54:36.807Z,45.59
2018-07-20T16:57:06.271Z,43.64
2018-07-20T16:59:35.705Z,44.67
2018-07-20T17:02:05.420Z,45.40
2018-07-20T17:04:34.804Z,45.39
2018-07-20T17:07:04.303Z,42.82
2018-07-20T17:09:33.851Z,45.84
2018-07-20T17:12:03.511Z,45.41
2018-07-20T17:14:32.910Z,44.86
2018-07-20T17:17:02.423Z,46.58
2018-07-20T17:19:31.905Z,47.91
2018-07-20T17:22:01.315Z,48.74
2018-07-20T17:24:30.749Z,48.62
2018-07-20T17:27:00.251Z,49.29
2018-07-20T17:29:29.770Z,50.00
2018-07-20T17:31:59.185Z,49.96
2018-07-20T17:34:28.982Z,49.31
2018-07-20T17:36:58.411Z,48.13
2018-07-20T17:39:27.882Z,48.67
2018-07-20T17:41:57.325Z,48.70
2018-07-20T17:44:26.824Z,49.04
2018-07-20T17:46:56.231Z,50.33
2018-07-20T17:49:25.826Z,49.88
2018-07-20T17:51:55.316Z,51.02
2018-07-20T17:54:24.814Z,50.95
2018-07-20T17:56:54.312Z,50.67
2018-07-20T17:59:23.881Z,50.96
2018-07-20T18:01:53.440Z,51.82
2018-07-20T18:04:22.546Z,50.95
2018-07-20T18:06:52.052Z,51.99
2018-07-20T18:09:21.756Z,52.26
2018-07-20T18:11:51.211Z,52.59
2018-07-20T18:14:20.663Z,52.47
2018-07-20T18:16:50.305Z,52.54
2018-07-20T18:19:19.782Z,53.24
2018-07-20T18:21:49.256Z,52.86
2018-07-20T18:24:18.436Z,52.34
2018-07-20T18:26:47.958Z,54.69
2018-07-20T18:29:17.510Z,53.52
2018-07-20T18:31:47.026Z,54.29
2018-07-20T18:34:16.558Z,53.95
2018-07-20T18:36:46.173Z,53.69
2018-07-20T18:39:15.681Z,54.05
2018-07-20T18:41:45.192Z,55.86
2018-07-20T18:44:14.674Z,55.53
2018-07-20T18:46:44.162Z,55.12
2018-07-20T18:49:13.560Z,54.78
2018-07-20T18:51:43.006Z,56.14
2018-07-20T18:54:12.579Z,55.51
2018-07-20T18:56:43.086Z,56.49
2018-07-20T18:59:12.671Z,55.59
2018-07-20T19:01:42.217Z,56.50
2018-07-20T19:04:11.749Z,57.38
2018-07-20T19:06:41.261Z,58.06
2018-07-20T19:09:11.999Z,58.66
2018-07-20T19:11:41.673Z,58.24
2018-07-20T19:14:11.115Z,58.66
2018-07-20T19:16:40.562Z,58.72
2018-07-20T19:19:10.044Z,59.85
2018-07-20T19:21:39.477Z,59.36
2018-07-20T19:24:09.081Z,59.58
2018-07-20T19:26:38.199Z,59.40
2018-07-20T19:29:07.765Z,59.88
2018-07-20T19:31:37.249Z,60.74
2018-07-20T19:34:06.767Z,60.95
2018-07-20T19:36:36.238Z,61.61
2018-07-20T19:39:09.415Z,62.07
2018-07-20T19:41:39.015Z,62.02
2018-07-20T19:44:08.499Z,62.58
2018-07-20T19:46:37.987Z,62.42
2018-07-20T19:49:07.463Z,62.05
2018-07-20T19:51:36.848Z,62.75
2018-07-20T19:54:05.994Z,62.73
2018-07-20T19:56:35.416Z,63.50
2018-07-20T19:59:04.984Z,63.22
2018-07-20T20:01:34.460Z,63.86
2018-07-20T20:04:04.052Z,63.88
2018-07-20T20:06:33.264Z,64.68
2018-07-20T20:09:02.673Z,64.74
2018-07-20T20:11:32.099Z,65.06
2018-07-20T20:14:01.510Z,64.85
2018-07-20T20:16:30.971Z,65.78
2018-07-20T20:19:00.494Z,66.36
2018-07-20T20:21:29.970Z,66.61
2018-07-20T20:23:59.368Z,66.35
2018-07-20T20:26:28.974Z,65.87
2018-07-20T20:28:58.395Z,66.96
2018-07-20T20:31:27.854Z,67.58
2018-07-20T20:33:57.315Z,67.32
2018-07-20T20:36:26.718Z,67.35
2018-07-20T20:38:56.733Z,68.14
2018-07-20T20:41:26.231Z,68.06
2018-07-20T20:43:56.324Z,68.41
2018-07-20T20:46:25.816Z,69.00
2018-07-20T20:48:55.311Z,69.39
2018-07-20T20:51:24.799Z,69.13
2018-07-20T20:53:54.431Z,69.49
2018-07-20T20:56:23.853Z,69.98
2018-07-20T20:58:53.315Z,70.00
2018-07-20T21:01:22.714Z,70.29
2018-07-20T21:03:52.147Z,69.95
2018-07-20T21:06:21.736Z,70.91
2018-07-20T21:08:51.183Z,70.78
2018-07-20T21:11:20.649Z,70.69
2018-07-20T21:13:49.778Z,70.93
2018-07-20T21:16:19.320Z,71.14
2018-07-20T21:18:48.507Z,71.78
2018-07-20T21:21:17.939Z,72.33
2018-07-20T21:23:47.132Z,72.45
2018-07-20T21:26:17.103Z,71.76
2018-07-20T21:28:46.533Z,72.04
2018-07-20T21:31:16.010Z,72.53
2018-07-20T21:33:45.493Z,72.21
2018-07-20T21:36:15.098Z,73.03
2018-07-20T21:38:44.549Z,73.04
2018-07-20T21:41:14.030Z,72.85
2018-07-20T21:43:43.460Z,72.87
2018-07-20T21:46:12.936Z,73.43
2018-07-20T21:48:42.391Z,73.25
2018-07-20T21:51:11.818Z,74.26
2018-07-20T21:53:41.271Z,73.67
2018-07-20T21:58:53.148Z,74.80
2018-07-20T22:01:22.775Z,74.98
2018-07-20T22:03:52.248Z,74.80
2018-07-20T22:06:21.695Z,75.35
2018-07-20T22:08:51.228Z,75.19
2018-07-20T22:11:20.665Z,75.52
2018-07-20T22:13:50.111Z,74.81
2018-07-20T22:16:19.810Z,75.21
2018-07-20T22:18:49.200Z,76.30
2018-07-20T22:21:18.657Z,76.36
2018-07-20T22:23:48.056Z,76.34
2018-07-20T22:26:17.586Z,76.62
2018-07-20T22:28:46.705Z,76.19
2018-07-20T22:31:16.130Z,76.27
2018-07-20T22:33:45.588Z,76.19
2018-07-20T22:36:15.009Z,76.68
2018-07-20T22:38:44.964Z,77.21
2018-07-20T22:41:14.970Z,76.75
2018-07-20T22:43:44.327Z,77.52
2018-07-20T22:46:13.778Z,77.14
2018-07-20T22:48:43.232Z,77.07
2018-07-20T22:51:12.688Z,77.16
2018-07-20T22:53:42.647Z,77.03
2018-07-20T22:56:12.122Z,77.25
2018-07-20T22:58:41.541Z,77.78
2018-07-20T23:01:11.446Z,77.91
2018-07-20T23:03:41.433Z,78.13
2018-07-20T23:06:10.855Z,77.93
2018-07-20T23:08:40.281Z,77.89
2018-07-20T23:11:09.713Z,77.89
2018-07-20T23:13:39.273Z,78.51
2018-07-20T23:16:08.740Z,78.67
2018-07-20T23:18:38.166Z,79.27
2018-07-20T23:21:07.299Z,78.60
2018-07-20T23:23:36.489Z,78.62
2018-07-20T23:26:06.024Z,79.31
2018-07-20T23:28:35.461Z,78.82
2018-07-20T23:31:05.243Z,79.21
2018-07-20T23:33:34.696Z,79.85
2018-07-20T23:36:04.212Z,79.66
2018-07-20T23:38:33.825Z,79.68
2018-07-20T23:41:03.311Z,79.62
2018-07-20T23:43:32.690Z,80.34
2018-07-20T23:46:02.123Z,79.39
2018-07-20T23:48:31.536Z,80.08
2018-07-20T23:51:01.117Z,80.13
2018-07-20T23:53:30.612Z,80.23
2018-07-20T23:56:00.016Z,80.07
2018-07-20T23:58:29.469Z,80.34
